createdAt,value
2023-10-30T00:00:54.363Z,10.89
2023-10-30T00:03:21.611Z,11.01
2023-10-30T00:05:49.970Z,11.08
2023-10-30T00:08:17.993Z,10.98
2023-10-30T00:10:44.931Z,10.98
2023-10-30T00:13:12.151Z,10.91
2023-10-30T00:15:39.225Z,10.92
2023-10-30T00:18:06.231Z,10.91
2023-10-30T00:20:36.661Z,10.78
2023-10-30T00:23:04.051Z,10.84
2023-10-30T00:25:30.986Z,10.78
2023-10-30T00:28:01.119Z,10.77
2023-10-30T00:30:28.611Z,10.81
2023-10-30T00:32:55.811Z,10.82
2023-10-30T00:35:23.003Z,10.82
2023-10-30T00:37:50.126Z,10.79
2023-10-30T00:40:17.153Z,10.80
2023-10-30T00:42:44.114Z,10.88
2023-10-30T00:45:11.493Z,10.87
2023-10-30T00:47:39.840Z,10.94
2023-10-30T00:50:08.958Z,10.89
2023-10-30T00:52:36.072Z,10.88
2023-10-30T00:55:03.175Z,10.89
2023-10-30T00:57:30.155Z,10.99
2023-10-30T00:59:57.124Z,10.94
2023-10-30T01:02:24.162Z,10.94
2023-10-30T01:04:51.665Z,10.91
2023-10-30T01:07:18.703Z,10.92
2023-10-30T01:09:45.656Z,10.85
2023-10-30T01:12:13.593Z,10.81
2023-10-30T01:14:41.530Z,10.79
2023-10-30T01:17:09.195Z,10.87
2023-10-30T01:19:36.674Z,10.81
2023-10-30T01:22:03.696Z,10.82
2023-10-30T01:24:31.915Z,10.77
2023-10-30T01:26:58.923Z,10.80
2023-10-30T01:29:26.080Z,10.79
2023-10-30T01:31:53.024Z,10.81
2023-10-30T01:34:20.054Z,10.78
2023-10-30T01:36:47.053Z,10.81
2023-10-30T01:39:14.138Z,10.83
2023-10-30T01:41:44.998Z,10.84
2023-10-30T01:44:11.899Z,10.83
2023-10-30T01:46:38.898Z,10.82
2023-10-30T01:49:06.132Z,10.79
2023-10-30T01:51:33.331Z,10.81
2023-10-30T01:54:00.587Z,10.83
2023-10-30T01:56:28.395Z,10.82
2023-10-30T01:58:55.644Z,10.83
2023-10-30T02:01:24.088Z,10.82
2023-10-30T02:03:53.510Z,10.76
2023-10-30T02:06:20.528Z,10.80
2023-10-30T02:08:47.875Z,10.83
2023-10-30T02:11:14.810Z,10.79
2023-10-30T02:13:41.739Z,10.84
2023-10-30T02:16:08.662Z,10.87
2023-10-30T02:18:35.755Z,10.93
2023-10-30T02:21:02.793Z,10.90
2023-10-30T02:23:29.705Z,10.93
2023-10-30T02:25:56.738Z,10.91
2023-10-30T02:28:24.209Z,10.88
2023-10-30T02:30:51.148Z,10.84
2023-10-30T02:33:18.111Z,10.90
2023-10-30T02:35:45.094Z,10.93
2023-10-30T02:38:12.004Z,10.89
2023-10-30T02:40:38.986Z,10.91
2023-10-30T02:43:05.913Z,10.92
2023-10-30T02:45:32.914Z,10.91
2023-10-30T02:47:59.881Z,10.91
2023-10-30T02:50:26.822Z,10.87
2023-10-30T02:52:53.790Z,10.82
2023-10-30T02:55:20.729Z,10.81
2023-10-30T02:57:47.645Z,10.79
2023-10-30T03:00:14.775Z,10.86
2023-10-30T03:02:41.871Z,10.77
2023-10-30T03:05:09.615Z,10.78
2023-10-30T03:07:36.716Z,10.77
2023-10-30T03:10:03.767Z,10.69
2023-10-30T03:12:30.706Z,10.69
2023-10-30T03:14:57.695Z,10.67
2023-10-30T03:17:24.649Z,10.66
2023-10-30T03:19:51.620Z,10.64
2023-10-30T03:22:18.580Z,10.67
2023-10-30T03:24:45.950Z,10.61
2023-10-30T03:27:13.075Z,10.63
2023-10-30T03:29:40.697Z,10.49
2023-10-30T03:32:07.668Z,10.58
2023-10-30T03:34:36.509Z,10.47
2023-10-30T03:37:03.616Z,10.44
2023-10-30T03:39:30.606Z,10.48
2023-10-30T03:41:57.618Z,10.40
2023-10-30T03:44:27.291Z,10.37
2023-10-30T03:46:54.522Z,10.31
2023-10-30T03:49:22.240Z,10.28
2023-10-30T03:51:52.321Z,10.25
2023-10-30T03:54:20.371Z,10.28
2023-10-30T03:56:47.292Z,10.22
2023-10-30T03:59:14.233Z,10.12
2023-10-30T04:01:41.245Z,10.15
2023-10-30T04:04:09.106Z,10.09
2023-10-30T04:06:39.860Z,10.09
2023-10-30T04:09:07.342Z,10.01
2023-10-30T04:11:34.592Z,10.01
2023-10-30T04:14:01.525Z,10.02
2023-10-30T04:16:29.945Z,10.02
2023-10-30T04:18:57.004Z,9.95
2023-10-30T04:21:23.981Z,9.95
2023-10-30T04:23:51.060Z,9.89
2023-10-30T04:26:18.876Z,9.90
2023-10-30T04:28:45.868Z,9.93
2023-10-30T04:31:12.815Z,9.95
2023-10-30T04:33:40.463Z,9.97
2023-10-30T04:36:08.070Z,9.92
2023-10-30T04:38:36.729Z,9.97
2023-10-30T04:41:05.572Z,10.02
2023-10-30T04:43:33.993Z,10.00
2023-10-30T04:46:01.114Z,9.95
2023-10-30T04:48:31.339Z,9.99
2023-10-30T04:50:59.012Z,10.05
2023-10-30T04:53:26.411Z,10.02
2023-10-30T04:56:03.422Z,10.01
2023-10-30T04:58:30.720Z,10.04
2023-10-30T05:00:57.665Z,10.06
2023-10-30T05:03:24.690Z,10.06
2023-10-30T05:05:51.703Z,10.05
2023-10-30T05:08:21.285Z,10.08
2023-10-30T05:10:48.350Z,10.07
2023-10-30T05:13:15.633Z,10.08
2023-10-30T05:15:42.625Z,10.04
2023-10-30T05:18:09.565Z,10.06
2023-10-30T05:20:36.542Z,10.05
2023-10-30T05:23:03.485Z,10.09
2023-10-30T05:25:41.914Z,10.06
2023-10-30T05:28:09.948Z,10.06
2023-10-30T05:30:37.363Z,10.04
2023-10-30T05:33:07.133Z,10.07
2023-10-30T05:35:41.835Z,10.08
2023-10-30T05:38:08.951Z,10.07
2023-10-30T05:40:35.931Z,10.05
2023-10-30T05:43:03.153Z,10.14
2023-10-30T05:45:30.101Z,10.10
2023-10-30T05:47:57.185Z,10.07
2023-10-30T05:50:24.285Z,10.08
2023-10-30T05:52:51.201Z,10.15
2023-10-30T05:55:18.311Z,10.16
2023-10-30T05:57:46.444Z,10.13
2023-10-30T06:00:15.457Z,10.14
2023-10-30T06:02:43.337Z,10.06
2023-10-30T06:05:14.687Z,10.07
2023-10-30T06:07:43.584Z,10.14
2023-10-30T06:10:12.153Z,10.04
2023-10-30T06:12:40.090Z,10.17
2023-10-30T06:15:08.683Z,10.17
2023-10-30T06:17:36.437Z,10.06
2023-10-30T06:20:07.403Z,10.06
2023-10-30T06:22:34.394Z,9.99
2023-10-30T06:25:01.820Z,10.04
2023-10-30T06:27:29.320Z,10.05
2023-10-30T06:29:56.540Z,10.11
2023-10-30T06:32:23.485Z,10.08
2023-10-30T06:34:50.601Z,10.09
2023-10-30T06:37:17.684Z,10.14
2023-10-30T06:39:44.730Z,10.11
2023-10-30T06:42:13.084Z,10.05
2023-10-30T06:44:40.093Z,10.03
2023-10-30T06:47:07.189Z,11.80
2023-10-30T06:49:34.378Z,12.90
2023-10-30T06:52:01.694Z,13.59
2023-10-30T06:54:29.104Z,14.00
2023-10-30T06:56:56.085Z,14.36
2023-10-30T06:59:23.047Z,14.62
2023-10-30T07:01:50.087Z,14.82
2023-10-30T07:04:17.598Z,14.97
2023-10-30T07:06:46.192Z,15.08
2023-10-30T07:09:13.849Z,15.18
2023-10-30T07:11:41.813Z,15.28
2023-10-30T07:14:09.492Z,15.30
2023-10-30T07:16:43.214Z,15.36
2023-10-30T07:19:17.067Z,15.38
2023-10-30T07:21:46.629Z,15.41
2023-10-30T07:24:13.901Z,15.41
2023-10-30T07:26:40.939Z,15.48
2023-10-30T07:29:08.684Z,15.49
2023-10-30T07:31:35.707Z,15.49
2023-10-30T07:34:02.734Z,15.55
2023-10-30T07:36:29.663Z,15.54
2023-10-30T07:38:56.714Z,15.55
2023-10-30T07:41:23.623Z,15.59
2023-10-30T07:43:50.687Z,15.61
2023-10-30T07:46:17.799Z,15.60
2023-10-30T07:48:44.881Z,15.60
2023-10-30T07:51:11.925Z,15.60
2023-10-30T07:53:39.598Z,15.57
2023-10-30T07:56:06.888Z,15.61
2023-10-30T07:58:34.050Z,15.67
2023-10-30T08:01:01.110Z,15.72
2023-10-30T08:03:28.323Z,15.73
2023-10-30T08:05:58.506Z,15.73
2023-10-30T08:08:25.470Z,15.69
2023-10-30T08:10:52.516Z,15.65
2023-10-30T08:13:19.524Z,15.69
2023-10-30T08:15:46.676Z,15.68
2023-10-30T08:18:13.891Z,15.69
2023-10-30T08:20:40.952Z,15.73
2023-10-30T08:23:07.849Z,15.75
2023-10-30T08:25:34.943Z,15.74
2023-10-30T08:28:02.157Z,15.77
2023-10-30T08:30:29.322Z,15.81
2023-10-30T08:32:57.444Z,15.80
2023-10-30T08:35:24.685Z,15.81
2023-10-30T08:37:51.663Z,15.82
2023-10-30T08:40:19.119Z,15.82
2023-10-30T08:42:46.164Z,15.85
2023-10-30T08:45:13.296Z,15.82
2023-10-30T08:47:40.479Z,15.84
2023-10-30T08:50:09.449Z,15.85
2023-10-30T08:52:37.198Z,15.83
2023-10-30T08:55:06.113Z,15.79
2023-10-30T08:57:33.250Z,15.82
2023-10-30T09:00:00.300Z,15.84
2023-10-30T09:02:27.683Z,15.85
2023-10-30T09:04:55.190Z,15.89
2023-10-30T09:07:22.169Z,15.85
2023-10-30T09:09:49.263Z,15.89
2023-10-30T09:12:16.342Z,15.92
2023-10-30T09:14:43.836Z,15.92
2023-10-30T09:17:11.114Z,15.89
2023-10-30T09:19:38.531Z,15.91
2023-10-30T09:22:06.040Z,15.90
2023-10-30T09:24:33.105Z,15.87
2023-10-30T09:27:00.161Z,15.90
2023-10-30T09:29:27.252Z,15.93
2023-10-30T09:31:54.641Z,15.92
2023-10-30T09:34:22.726Z,15.91
2023-10-30T09:36:50.628Z,15.93
2023-10-30T09:39:17.585Z,15.91
2023-10-30T09:41:46.704Z,15.90
2023-10-30T09:44:14.178Z,15.93
2023-10-30T09:46:42.176Z,15.92
2023-10-30T09:49:14.582Z,15.94
2023-10-30T09:51:43.584Z,15.92
2023-10-30T09:54:11.004Z,15.96
2023-10-30T09:56:40.939Z,15.96
2023-10-30T09:59:08.003Z,15.95
2023-10-30T10:01:35.659Z,15.98
2023-10-30T10:04:02.871Z,15.96
2023-10-30T10:06:29.968Z,15.91
2023-10-30T10:08:57.074Z,15.94
2023-10-30T10:11:24.068Z,15.95
2023-10-30T10:14:04.653Z,15.96
2023-10-30T10:16:32.966Z,15.99
2023-10-30T10:19:00.238Z,15.98
2023-10-30T10:21:27.674Z,15.96
2023-10-30T10:23:55.153Z,15.94
2023-10-30T10:26:31.171Z,15.91
2023-10-30T10:28:59.576Z,15.94
2023-10-30T10:31:26.696Z,15.91
2023-10-30T10:33:54.556Z,15.96
2023-10-30T10:36:21.688Z,15.96
2023-10-30T10:39:00.725Z,15.91
2023-10-30T10:41:28.232Z,15.90
2023-10-30T10:43:56.895Z,15.91
2023-10-30T10:46:24.117Z,15.94
2023-10-30T10:48:51.326Z,15.96
2023-10-30T10:51:44.390Z,15.97
2023-10-30T10:54:20.359Z,15.97
2023-10-30T10:56:53.151Z,15.97
2023-10-30T10:59:22.291Z,15.95
2023-10-30T11:01:52.745Z,15.99
2023-10-30T11:04:19.986Z,16.00
2023-10-30T11:06:56.758Z,16.01
2023-10-30T11:09:34.439Z,15.99
2023-10-30T11:12:32.487Z,16.01
2023-10-30T11:15:20.531Z,16.02
2023-10-30T11:18:20.302Z,16.02
2023-10-30T11:20:50.454Z,16.03
2023-10-30T11:23:45.955Z,16.03
2023-10-30T11:26:37.382Z,16.06
2023-10-30T11:29:44.560Z,16.05
2023-10-30T11:32:16.042Z,16.05
2023-10-30T11:34:44.775Z,16.04
2023-10-30T11:37:13.587Z,16.07
2023-10-30T11:39:43.378Z,16.08
2023-10-30T11:42:31.469Z,16.06
2023-10-30T11:45:25.767Z,16.08
2023-10-30T11:48:07.227Z,16.08
2023-10-30T11:50:44.485Z,16.08
2023-10-30T11:53:17.650Z,16.07
2023-10-30T11:55:44.770Z,16.10
2023-10-30T11:58:12.468Z,16.08
2023-10-30T12:00:47.939Z,16.07
2023-10-30T12:03:16.414Z,16.10
2023-10-30T12:05:45.831Z,16.10
2023-10-30T12:08:13.040Z,16.10
2023-10-30T12:10:40.712Z,16.11
2023-10-30T12:13:11.089Z,16.10
2023-10-30T12:15:38.195Z,16.11
2023-10-30T12:18:06.261Z,16.11
2023-10-30T12:20:33.714Z,16.12
2023-10-30T12:23:00.779Z,16.08
2023-10-30T12:25:27.751Z,16.12
2023-10-30T12:28:02.586Z,16.12
2023-10-30T12:30:39.505Z,16.13
2023-10-30T12:33:06.909Z,16.10
2023-10-30T12:35:35.899Z,16.12
2023-10-30T12:38:16.133Z,16.12
2023-10-30T12:40:44.958Z,16.13
2023-10-30T12:43:12.057Z,16.12
2023-10-30T12:45:40.594Z,16.11
2023-10-30T12:48:07.807Z,16.10
2023-10-30T12:50:36.768Z,16.12
2023-10-30T12:53:03.840Z,16.12
2023-10-30T12:55:30.877Z,16.12
2023-10-30T12:57:57.890Z,16.12
2023-10-30T13:00:26.200Z,16.12
2023-10-30T13:02:53.317Z,16.13
2023-10-30T13:05:20.551Z,16.13
2023-10-30T13:07:47.533Z,16.14
2023-10-30T13:10:14.846Z,16.15
2023-10-30T13:12:41.916Z,16.14
2023-10-30T13:15:09.435Z,16.14
2023-10-30T13:17:36.445Z,16.13
2023-10-30T13:20:07.600Z,16.15
2023-10-30T13:22:34.691Z,16.14
2023-10-30T13:25:01.651Z,16.15
2023-10-30T13:27:28.756Z,16.14
2023-10-30T13:29:55.699Z,16.16
2023-10-30T13:32:22.677Z,16.14
2023-10-30T13:34:49.841Z,16.16
2023-10-30T13:37:16.881Z,16.15
2023-10-30T13:39:43.955Z,16.17
2023-10-30T13:42:10.936Z,16.16
2023-10-30T13:44:37.839Z,16.14
2023-10-30T13:47:04.954Z,16.15
2023-10-30T13:49:32.606Z,16.15
2023-10-30T13:51:59.865Z,16.15
2023-10-30T13:54:26.906Z,16.14
2023-10-30T13:56:54.208Z,16.13
2023-10-30T13:59:21.555Z,16.14
2023-10-30T14:01:48.545Z,16.15
2023-10-30T14:04:18.344Z,16.16
2023-10-30T14:06:45.800Z,16.15
2023-10-30T14:09:13.768Z,16.17
2023-10-30T14:11:41.619Z,16.15
2023-10-30T14:14:08.548Z,16.15
2023-10-30T14:16:36.652Z,16.15
2023-10-30T14:19:04.725Z,16.16
2023-10-30T14:21:35.155Z,16.18
2023-10-30T14:24:02.123Z,16.16
2023-10-30T14:26:30.414Z,16.18
2023-10-30T14:28:57.332Z,16.16
2023-10-30T14:31:24.370Z,16.18
2023-10-30T14:33:51.787Z,16.16
2023-10-30T14:36:18.722Z,16.18
2023-10-30T14:38:45.718Z,16.18
2023-10-30T14:41:12.918Z,16.18
2023-10-30T14:43:39.897Z,16.19
2023-10-30T14:46:07.040Z,16.19
2023-10-30T14:48:34.335Z,16.18
2023-10-30T14:51:01.985Z,16.19
2023-10-30T14:53:28.968Z,16.18
2023-10-30T14:55:56.085Z,16.19
2023-10-30T14:58:23.101Z,16.17
2023-10-30T15:00:50.234Z,16.17
2023-10-30T15:03:17.178Z,16.19
2023-10-30T15:05:44.872Z,16.18
2023-10-30T15:08:11.922Z,16.19
2023-10-30T15:10:39.064Z,16.18
2023-10-30T15:13:06.124Z,16.18
2023-10-30T15:15:33.219Z,16.19
2023-10-30T15:18:00.232Z,16.19
2023-10-30T15:20:27.222Z,16.18
2023-10-30T15:22:54.179Z,16.18
2023-10-30T15:25:22.476Z,16.18
2023-10-30T15:27:49.649Z,16.17
2023-10-30T15:30:16.684Z,16.18
2023-10-30T15:32:43.689Z,16.19
2023-10-30T15:35:12.916Z,16.18
2023-10-30T15:37:40.924Z,16.16
2023-10-30T15:40:09.343Z,16.15
2023-10-30T15:42:36.309Z,16.15
2023-10-30T15:45:04.057Z,16.13
2023-10-30T15:47:33.839Z,16.14
2023-10-30T15:50:03.033Z,16.13
2023-10-30T15:57:33.976Z,16.15
2023-10-30T16:00:08.207Z,16.13
2023-10-30T16:02:36.899Z,13.42
2023-10-30T16:05:07.827Z,13.20
2023-10-30T16:07:36.562Z,13.20
2023-10-30T16:12:54.014Z,13.13
2023-10-30T16:15:22.136Z,13.07
2023-10-30T16:18:20.923Z,13.05
2023-10-30T16:23:25.453Z,13.03
2023-10-30T16:26:03.109Z,13.03
2023-10-30T16:28:30.057Z,12.98
2023-10-30T16:30:58.088Z,12.96
2023-10-30T16:33:25.032Z,12.95
2023-10-30T16:35:55.984Z,12.94
2023-10-30T16:38:22.922Z,12.92
2023-10-30T16:40:49.945Z,12.91
2023-10-30T16:43:16.842Z,12.90
2023-10-30T16:45:44.344Z,12.90
2023-10-30T16:48:13.177Z,12.89
2023-10-30T16:50:40.213Z,12.86
2023-10-30T16:53:07.251Z,12.86
2023-10-30T16:55:34.265Z,12.85
2023-10-30T16:58:01.725Z,12.85
2023-10-30T17:00:28.933Z,12.85
2023-10-30T17:02:56.151Z,12.84
2023-10-30T17:05:23.281Z,12.84
2023-10-30T17:07:50.326Z,12.83
2023-10-30T17:10:17.325Z,12.82
2023-10-30T17:12:44.247Z,12.82
2023-10-30T17:15:11.404Z,12.82
2023-10-30T17:17:38.446Z,12.82
2023-10-30T17:20:05.912Z,12.82
2023-10-30T17:22:33.077Z,12.80
2023-10-30T17:25:01.847Z,12.82
2023-10-30T17:27:28.981Z,12.82
2023-10-30T17:29:55.944Z,12.80
2023-10-30T17:32:22.909Z,12.80
2023-10-30T17:34:50.657Z,12.80
2023-10-30T17:37:20.075Z,12.78
2023-10-30T17:39:47.341Z,12.79
2023-10-30T17:42:14.472Z,12.80
2023-10-30T17:44:41.422Z,12.78
2023-10-30T17:47:08.533Z,12.79
2023-10-30T17:49:37.048Z,12.78
2023-10-30T17:52:04.674Z,12.79
2023-10-30T17:54:34.859Z,12.79
2023-10-30T17:57:04.118Z,12.80
2023-10-30T17:59:31.230Z,12.82
2023-10-30T18:01:58.642Z,12.84
2023-10-30T18:04:25.772Z,12.85
2023-10-30T18:06:52.822Z,12.85
2023-10-30T18:09:20.815Z,12.83
2023-10-30T18:11:49.149Z,12.80
2023-10-30T18:14:16.327Z,12.77
2023-10-30T18:16:43.893Z,12.78
2023-10-30T18:19:11.114Z,12.75
2023-10-30T18:21:38.084Z,12.76
2023-10-30T18:24:05.237Z,12.75
2023-10-30T18:26:32.281Z,12.74
2023-10-30T18:29:06.986Z,12.75
2023-10-30T18:31:40.235Z,12.75
2023-10-30T18:34:07.914Z,12.76
2023-10-30T18:36:34.884Z,12.73
2023-10-30T18:39:02.047Z,12.75
2023-10-30T18:41:29.077Z,12.74
2023-10-30T18:43:56.155Z,12.76
2023-10-30T18:46:24.805Z,12.74
2023-10-30T18:48:51.810Z,12.75
2023-10-30T18:51:18.769Z,12.76
2023-10-30T18:53:45.695Z,12.74
2023-10-30T18:56:13.150Z,12.73
2023-10-30T18:58:40.269Z,12.74
2023-10-30T19:01:08.036Z,12.73
2023-10-30T19:03:35.358Z,12.73
2023-10-30T19:06:04.414Z,12.75
2023-10-30T19:08:35.163Z,12.73
2023-10-30T19:11:02.680Z,12.74
2023-10-30T19:13:33.234Z,12.76
2023-10-30T19:16:01.060Z,12.76
2023-10-30T19:18:28.650Z,12.77
2023-10-30T19:20:56.895Z,12.77
2023-10-30T19:23:23.999Z,12.77
2023-10-30T19:25:50.993Z,12.78
2023-10-30T19:28:18.072Z,12.77
2023-10-30T19:30:45.050Z,12.78
2023-10-30T19:33:12.026Z,12.78
2023-10-30T19:35:39.205Z,12.80
2023-10-30T19:38:07.979Z,12.79
2023-10-30T19:40:36.687Z,12.80
2023-10-30T19:43:04.441Z,12.81
2023-10-30T19:45:32.176Z,12.80
2023-10-30T19:47:59.388Z,12.81
2023-10-30T19:50:26.387Z,12.81
2023-10-30T19:52:53.494Z,12.82
2023-10-30T19:55:20.561Z,12.80
2023-10-30T19:57:50.754Z,12.80
2023-10-30T20:00:18.954Z,12.83
2023-10-30T20:02:46.085Z,12.82
2023-10-30T20:05:13.308Z,12.83
2023-10-30T20:07:43.825Z,12.87
2023-10-30T20:10:27.701Z,12.88
2023-10-30T20:12:58.113Z,12.76
2023-10-30T20:15:25.093Z,12.64
2023-10-30T20:17:52.345Z,12.46
2023-10-30T20:20:19.424Z,12.33
2023-10-30T20:22:46.401Z,12.27
2023-10-30T20:25:15.064Z,12.19
2023-10-30T20:27:43.218Z,12.18
2023-10-30T20:30:11.063Z,12.19
2023-10-30T20:32:38.337Z,12.07
2023-10-30T20:35:05.798Z,11.97
2023-10-30T20:37:32.742Z,11.99
2023-10-30T20:39:59.749Z,11.97
2023-10-30T20:42:27.046Z,11.83
2023-10-30T20:44:54.071Z,11.90
2023-10-30T20:47:21.004Z,11.88
2023-10-30T20:49:48.249Z,11.91
2023-10-30T20:52:15.367Z,11.82
2023-10-30T20:54:42.521Z,11.88
2023-10-30T20:57:09.528Z,11.84
2023-10-30T20:59:36.545Z,11.80
2023-10-30T21:02:03.653Z,11.82
2023-10-30T21:04:30.953Z,11.81
2023-10-30T21:06:57.955Z,11.80
2023-10-30T21:09:25.222Z,11.77
2023-10-30T21:11:52.235Z,11.74
2023-10-30T21:14:20.704Z,11.79
2023-10-30T21:16:49.922Z,11.75
2023-10-30T21:19:16.968Z,11.80
2023-10-30T21:21:43.943Z,11.86
2023-10-30T21:24:11.021Z,11.78
2023-10-30T21:26:37.986Z,11.82
2023-10-30T21:29:05.203Z,11.72
2023-10-30T21:31:32.690Z,11.72
2023-10-30T21:33:59.657Z,11.69
2023-10-30T21:36:26.653Z,11.64
2023-10-30T21:38:55.165Z,11.68
2023-10-30T21:41:22.151Z,11.65
2023-10-30T21:43:50.962Z,11.68
2023-10-30T21:46:18.585Z,11.68
2023-10-30T21:48:45.880Z,11.66
2023-10-30T21:51:12.885Z,11.64
2023-10-30T21:53:39.862Z,11.60
2023-10-30T21:56:07.246Z,11.59
2023-10-30T21:58:34.297Z,11.55
2023-10-30T22:01:01.295Z,11.63
2023-10-30T22:03:28.798Z,11.59
2023-10-30T22:05:55.799Z,11.61
2023-10-30T22:08:22.722Z,11.59
2023-10-30T22:10:49.757Z,11.59
2023-10-30T22:13:16.723Z,11.59
2023-10-30T22:15:46.344Z,11.57
2023-10-30T22:18:13.488Z,11.55
2023-10-30T22:20:40.951Z,11.55
2023-10-30T22:23:07.958Z,11.56
2023-10-30T22:25:34.964Z,11.55
2023-10-30T22:28:01.942Z,11.53
2023-10-30T22:30:28.937Z,11.54
2023-10-30T22:32:55.928Z,11.53
2023-10-30T22:35:22.897Z,11.55
2023-10-30T22:37:49.845Z,11.52
2023-10-30T22:40:17.046Z,11.52
2023-10-30T22:42:44.063Z,11.52
2023-10-30T22:45:11.430Z,11.48
2023-10-30T22:47:38.450Z,11.48
2023-10-30T22:50:06.284Z,11.48
2023-10-30T22:52:33.902Z,11.48
2023-10-30T22:55:01.102Z,11.43
2023-10-30T22:57:28.790Z,11.43
2023-10-30T22:59:55.734Z,11.42
2023-10-30T23:02:22.736Z,11.41
2023-10-30T23:04:49.986Z,11.38
2023-10-30T23:07:17.316Z,11.36
2023-10-30T23:09:44.257Z,11.37
2023-10-30T23:12:11.264Z,11.35
2023-10-30T23:14:38.553Z,11.35
2023-10-30T23:17:05.627Z,11.34
2023-10-30T23:19:35.278Z,11.34
2023-10-30T23:22:02.419Z,11.33
2023-10-30T23:24:29.357Z,11.34
2023-10-30T23:26:56.314Z,11.35
2023-10-30T23:29:23.487Z,11.37
2023-10-30T23:31:50.422Z,11.36
2023-10-30T23:34:17.346Z,11.34
2023-10-30T23:36:44.344Z,11.33
2023-10-30T23:39:11.271Z,11.35
2023-10-30T23:41:38.288Z,11.42
2023-10-30T23:44:05.991Z,11.39
2023-10-30T23:46:39.086Z,11.38
2023-10-30T23:49:08.548Z,11.39
2023-10-30T23:51:35.521Z,11.33
2023-10-30T23:54:02.430Z,11.31
2023-10-30T23:56:29.425Z,11.32
2023-10-30T23:58:56.379Z,11.32
